Time;durP1;ratioP1;P1;durP2;ratioP2;P2;SDS_P1;SDS_P2;PMS_P1;PMS_P2;Temp;Humidity;BMP_temperature;BMP_pressure;BME280_temperature;BME280_humidity;BME280_pressure;Samples;Min_cycle;Max_cycle;Signal;HPM_P1;HPM_P2
2022/12/26 00:01:04;;;;;;;2.57;1.80;;;;;;;;;;10411520;28;20204;-63
2022/12/26 00:06:10;;;;;;;4.23;1.90;;;;;;;;;;10411631;28;20243;-63
2022/12/26 00:11:10;;;;;;;2.70;1.60;;;;;;;;;;10410811;28;20208;-64
2022/12/26 00:16:15;;;;;;;1.40;1.30;;;;;;;;;;10411543;28;20290;-64
2022/12/26 00:21:16;;;;;;;5.50;1.60;;;;;;;;;;10410549;28;20266;-64
2022/12/26 00:26:17;;;;;;;2.93;1.67;;;;;;;;;;10410799;28;20666;-62
2022/12/26 00:31:35;;;;;;;2.10;1.60;;;;;;;;;;10409607;28;20212;-64
2022/12/26 00:36:36;;;;;;;3.07;1.43;;;;;;;;;;10409580;28;20220;-63
2022/12/26 00:41:36;;;;;;;4.93;1.80;;;;;;;;;;10430892;22;20240;-62
2022/12/26 00:46:36;;;;;;;2.67;1.73;;;;;;;;;;10410082;28;20188;-62
2022/12/26 00:51:36;;;;;;;4.83;1.80;;;;;;;;;;10409508;28;20231;-63
2022/12/26 00:56:37;;;;;;;1.53;1.43;;;;;;;;;;10408743;28;20208;-60
2022/12/26 01:01:37;;;;;;;2.93;1.63;;;;;;;;;;10409197;28;20215;-63
2022/12/26 01:06:37;;;;;;;1.90;1.67;;;;;;;;;;10408255;28;20188;-61
2022/12/26 01:11:40;;;;;;;1.88;1.40;;;;;;;;;;10408439;28;20223;-59
2022/12/26 01:16:41;;;;;;;1.80;1.60;;;;;;;;;;10408960;28;20212;-62
2022/12/26 01:21:41;;;;;;;2.42;1.73;;;;;;;;;;10407600;28;20691;-56
2022/12/26 01:26:42;;;;;;;3.00;1.88;;;;;;;;;;10408141;28;20655;-61
2022/12/26 01:31:42;;;;;;;1.80;1.35;;;;;;;;;;10407847;28;20577;-61
2022/12/26 01:36:42;;;;;;;3.13;1.80;;;;;;;;;;10407098;28;20593;-60
2022/12/26 01:41:42;;;;;;;2.63;2.40;;;;;;;;;;10407741;28;20274;-60
2022/12/26 01:46:43;;;;;;;3.60;2.27;;;;;;;;;;10406581;28;20196;-62
2022/12/26 01:51:47;;;;;;;4.50;2.27;;;;;;;;;;10407152;28;20240;-60
2022/12/26 01:56:47;;;;;;;6.88;1.90;;;;;;;;;;10407522;28;20217;-57
2022/12/26 02:01:49;;;;;;;3.13;2.40;;;;;;;;;;10405400;28;20192;-60
2022/12/26 02:06:50;;;;;;;2.53;1.50;;;;;;;;;;10406621;28;20191;-57
2022/12/26 02:11:57;;;;;;;4.10;2.03;;;;;;;;;;10406224;28;20208;-59
2022/12/26 02:16:57;;;;;;;3.57;2.30;;;;;;;;;;10406708;28;20253;-58
2022/12/26 02:22:10;;;;;;;3.93;2.20;;;;;;;;;;10405712;28;20200;-61
2022/12/26 02:27:20;;;;;;;2.37;2.13;;;;;;;;;;10407045;28;20196;-59
2022/12/26 02:32:31;;;;;;;3.47;2.40;;;;;;;;;;10405417;28;20215;-62
2022/12/26 02:37:31;;;;;;;4.37;2.50;;;;;;;;;;10406185;28;20220;-63
2022/12/26 02:42:58;;;;;;;3.87;2.07;;;;;;;;;;10405552;28;20236;-62
2022/12/26 02:47:58;;;;;;;2.20;2.00;;;;;;;;;;10406161;28;20192;-60
2022/12/26 03:14:27;;;;;;;3.70;1.90;;;;;;;;;;10408587;28;20235;-62
2022/12/26 03:19:30;;;;;;;1.57;1.43;;;;;;;;;;10406560;28;20683;-62
2022/12/26 03:26:38;;;;;;;4.73;1.97;;;;;;;;;;10410255;28;20177;-62
2022/12/26 03:35:11;;;;;;;2.87;1.70;;;;;;;;;;10411988;28;20213;-62
2022/12/26 04:45:04;;;;;;;6.13;1.83;;;;;;;;;;10402679;28;20192;-63
2022/12/26 04:50:11;;;;;;;1.50;1.27;;;;;;;;;;10401847;28;20216;-62
2022/12/26 04:55:11;;;;;;;1.50;1.40;;;;;;;;;;10403559;28;20212;-59
2022/12/26 05:00:11;;;;;;;1.77;1.50;;;;;;;;;;10401578;28;20592;-60
2022/12/26 05:10:31;;;;;;;2.80;1.30;;;;;;;;;;10408154;28;20208;-61
2022/12/26 05:28:40;;;;;;;1.80;1.53;;;;;;;;;;10409073;28;20742;-62
2022/12/26 05:31:38;;;;;;;2.87;1.70;;;;;;;;;;10407952;28;20231;-60
2022/12/26 05:36:40;;;;;;;2.53;1.90;;;;;;;;;;10408620;28;20227;-62
2022/12/26 05:41:41;;;;;;;2.63;1.60;;;;;;;;;;10407395;28;20333;-62
2022/12/26 05:46:41;;;;;;;2.47;1.80;;;;;;;;;;10408324;28;20306;-62
2022/12/26 05:51:41;;;;;;;2.67;1.80;;;;;;;;;;10407594;28;20690;-61
2022/12/26 05:56:41;;;;;;;2.78;1.60;;;;;;;;;;10407707;28;20219;-60
2022/12/26 06:01:41;;;;;;;2.00;1.50;;;;;;;;;;10407270;28;20606;-62
2022/12/26 06:06:41;;;;;;;5.13;1.80;;;;;;;;;;10407899;28;20192;-61
2022/12/26 06:11:42;;;;;;;3.70;1.87;;;;;;;;;;10407144;28;20207;-61
2022/12/26 06:16:42;;;;;;;4.23;2.03;;;;;;;;;;10405887;28;20220;-62
2022/12/26 06:21:42;;;;;;;5.23;1.90;;;;;;;;;;10406931;28;20216;-62
2022/12/26 06:26:42;;;;;;;4.50;1.80;;;;;;;;;;10406479;28;20192;-62
2022/12/26 06:31:42;;;;;;;4.40;1.90;;;;;;;;;;10405823;28;20589;-62
2022/12/26 06:36:43;;;;;;;2.73;1.63;;;;;;;;;;10406815;28;20232;-60
2022/12/26 06:41:44;;;;;;;2.37;1.70;;;;;;;;;;10415096;23;20319;-63
2022/12/26 06:46:44;;;;;;;2.70;2.03;;;;;;;;;;10365744;28;20560;-64
2022/12/26 06:51:44;;;;;;;3.37;1.90;;;;;;;;;;10365808;28;20209;-64
2022/12/26 06:56:45;;;;;;;2.77;1.80;;;;;;;;;;10365628;28;20227;-61
2022/12/26 07:01:45;;;;;;;2.20;2.00;;;;;;;;;;10364654;28;20205;-64
2022/12/26 07:06:45;;;;;;;2.57;1.93;;;;;;;;;;10365599;28;20189;-62
2022/12/26 07:11:46;;;;;;;2.73;2.03;;;;;;;;;;10364781;28;20213;-61
2022/12/26 07:16:47;;;;;;;2.07;1.60;;;;;;;;;;10365524;28;20591;-62
2022/12/26 07:21:47;;;;;;;2.90;2.00;;;;;;;;;;10365025;28;20221;-62
2022/12/26 07:26:47;;;;;;;4.37;2.10;;;;;;;;;;10364687;28;20211;-61
2022/12/26 07:31:48;;;;;;;3.53;2.80;;;;;;;;;;10364331;28;20214;-63
2022/12/26 07:36:48;;;;;;;3.80;1.80;;;;;;;;;;10365199;28;20220;-61
2022/12/26 07:41:57;;;;;;;6.73;2.10;;;;;;;;;;10364058;28;20245;-62
2022/12/26 07:46:58;;;;;;;5.00;2.07;;;;;;;;;;10371621;28;20189;-63
2022/12/26 07:51:58;;;;;;;2.67;1.90;;;;;;;;;;10370381;28;20201;-60
2022/12/26 07:56:58;;;;;;;3.57;2.30;;;;;;;;;;10371650;28;20315;-61
2022/12/26 08:02:01;;;;;;;3.23;1.97;;;;;;;;;;10371310;28;20554;-63
2022/12/26 08:07:01;;;;;;;2.50;1.67;;;;;;;;;;10370812;28;20581;-62
2022/12/26 08:12:01;;;;;;;2.67;1.88;;;;;;;;;;10371213;28;20209;-64
2022/12/26 08:17:01;;;;;;;2.63;1.87;;;;;;;;;;10370717;28;20224;-65
2022/12/26 08:22:02;;;;;;;1.77;1.67;;;;;;;;;;10370498;28;20205;-65
2022/12/26 08:27:02;;;;;;;2.40;1.60;;;;;;;;;;10370206;28;20268;-65
2022/12/26 08:32:03;;;;;;;2.70;1.40;;;;;;;;;;10369932;28;20209;-64
2022/12/26 08:37:03;;;;;;;4.00;1.67;;;;;;;;;;10369548;28;20224;-66
2022/12/26 08:42:03;;;;;;;5.60;1.83;;;;;;;;;;10369336;28;20240;-65
2022/12/26 08:47:03;;;;;;;5.10;2.20;;;;;;;;;;10370237;28;20212;-65
2022/12/26 08:52:03;;;;;;;5.03;2.22;;;;;;;;;;10368958;28;20793;-66
2022/12/26 08:57:04;;;;;;;7.57;1.77;;;;;;;;;;10368795;28;20238;-65
2022/12/26 09:02:04;;;;;;;4.93;2.22;;;;;;;;;;10368559;28;20201;-65
2022/12/26 09:07:06;;;;;;;5.82;2.05;;;;;;;;;;10367139;28;20193;-65
2022/12/26 09:12:06;;;;;;;6.32;1.70;;;;;;;;;;10365166;28;20586;-65
2022/12/26 09:17:06;;;;;;;3.10;1.80;;;;;;;;;;10367167;28;20216;-63
2022/12/26 09:27:27;;;;;;;3.47;1.90;;;;;;;;;;10368373;28;20194;-65
2022/12/26 09:32:31;;;;;;;4.90;2.80;;;;;;;;;;10367055;28;20218;-65
2022/12/26 09:37:31;;;;;;;3.83;2.20;;;;;;;;;;10367510;28;20245;-65
2022/12/26 09:42:52;;;;;;;2.83;1.63;;;;;;;;;;10366775;28;20455;-66
2022/12/26 09:47:55;;;;;;;2.20;1.50;;;;;;;;;;10367443;28;20432;-66
2022/12/26 09:53:01;;;;;;;2.30;1.75;;;;;;;;;;10366607;28;20654;-66
2022/12/26 09:58:05;;;;;;;3.22;1.65;;;;;;;;;;10366886;28;20213;-66
2022/12/26 10:03:07;;;;;;;3.50;1.88;;;;;;;;;;10366380;28;20688;-66
2022/12/26 10:08:22;;;;;;;3.78;1.88;;;;;;;;;;10365672;28;20229;-66
2022/12/26 10:13:32;;;;;;;2.88;1.80;;;;;;;;;;10365950;28;20212;-65
2022/12/26 10:18:33;;;;;;;2.40;1.70;;;;;;;;;;10366088;28;20221;-65
2022/12/26 10:23:53;;;;;;;2.00;1.50;;;;;;;;;;10365983;28;20201;-65
2022/12/26 10:28:58;;;;;;;3.35;1.70;;;;;;;;;;10366514;28;20193;-66
2022/12/26 10:34:07;;;;;;;2.15;1.58;;;;;;;;;;10365691;28;20221;-66
2022/12/26 10:39:13;;;;;;;4.10;1.73;;;;;;;;;;10365590;28;20219;-65
2022/12/26 10:44:15;;;;;;;4.23;2.10;;;;;;;;;;10365696;28;20287;-63
2022/12/26 10:49:17;;;;;;;5.07;3.10;;;;;;;;;;10365248;28;20209;-63
2022/12/26 10:54:18;;;;;;;2.53;2.07;;;;;;;;;;10365742;28;20473;-64
2022/12/26 10:59:20;;;;;;;2.47;1.87;;;;;;;;;;10365601;28;20324;-64
2022/12/26 11:04:22;;;;;;;2.57;1.80;;;;;;;;;;10364691;28;20216;-62
2022/12/26 11:09:44;;;;;;;4.67;1.30;;;;;;;;;;10365535;28;20204;-63
2022/12/26 11:14:45;;;;;;;1.97;1.60;;;;;;;;;;10364493;28;20239;-63
2022/12/26 11:19:45;;;;;;;2.70;1.47;;;;;;;;;;10371314;28;20787;-63
2022/12/26 11:24:45;;;;;;;2.40;1.53;;;;;;;;;;10372387;28;20767;-63
2022/12/26 11:29:45;;;;;;;1.40;1.30;;;;;;;;;;10373125;28;20578;-64
2022/12/26 11:34:47;;;;;;;2.50;1.40;;;;;;;;;;10371659;28;20206;-63
2022/12/26 11:39:49;;;;;;;2.50;1.33;;;;;;;;;;10372755;28;20189;-63
2022/12/26 11:44:51;;;;;;;1.33;1.23;;;;;;;;;;10371256;28;20240;-62
2022/12/26 11:50:03;;;;;;;3.00;1.37;;;;;;;;;;10372115;28;20569;-63
2022/12/26 11:55:23;;;;;;;2.50;1.30;;;;;;;;;;10371315;28;20201;-64
2022/12/26 12:00:24;;;;;;;1.10;1.10;;;;;;;;;;10371448;28;20280;-64
2022/12/26 12:05:31;;;;;;;1.30;1.20;;;;;;;;;;10371065;28;20197;-64
2022/12/26 12:10:49;;;;;;;2.10;1.30;;;;;;;;;;10371103;28;20991;-64
2022/12/26 12:15:53;;;;;;;1.80;1.17;;;;;;;;;;10370276;28;20232;-64
2022/12/26 12:20:54;;;;;;;2.50;1.20;;;;;;;;;;10370606;28;20227;-64
2022/12/26 12:26:13;;;;;;;2.23;1.30;;;;;;;;;;10370950;28;20284;-63
2022/12/26 12:31:26;;;;;;;2.53;1.70;;;;;;;;;;10368973;28;20201;-63
2022/12/26 12:36:30;;;;;;;1.40;1.30;;;;;;;;;;10370270;28;20228;-63
2022/12/26 12:41:30;;;;;;;3.00;1.53;;;;;;;;;;10401947;23;20250;-63
2022/12/26 12:46:36;;;;;;;1.87;1.23;;;;;;;;;;10492880;28;20193;-62
2022/12/26 12:51:43;;;;;;;1.50;1.40;;;;;;;;;;10493424;28;20295;-64
2022/12/26 12:57:09;;;;;;;3.23;1.70;;;;;;;;;;10492571;28;20712;-63
2022/12/26 13:02:32;;;;;;;1.37;1.23;;;;;;;;;;10492410;28;20203;-63
2022/12/26 13:07:38;;;;;;;1.40;1.30;;;;;;;;;;10481806;28;20203;-63
2022/12/26 13:12:39;;;;;;;4.80;1.63;;;;;;;;;;10491051;28;20218;-63
2022/12/26 13:17:56;;;;;;;2.37;1.40;;;;;;;;;;10491881;28;20223;-63
2022/12/26 13:28:26;;;;;;;2.10;1.90;;;;;;;;;;10491712;28;20184;-64
2022/12/26 13:33:27;;;;;;;2.23;1.57;;;;;;;;;;10490986;28;20290;-62
2022/12/26 13:38:46;;;;;;;3.23;1.53;;;;;;;;;;10491351;28;20585;-63
2022/12/26 13:44:01;;;;;;;1.47;1.37;;;;;;;;;;10489573;28;20254;-63
2022/12/26 13:49:02;;;;;;;2.07;1.50;;;;;;;;;;10469284;28;20685;-63
2022/12/26 13:54:08;;;;;;;1.93;1.50;;;;;;;;;;10465417;28;20207;-63
2022/12/26 13:59:16;;;;;;;1.83;1.60;;;;;;;;;;10490123;28;20214;-61
2022/12/26 14:04:33;;;;;;;1.60;1.27;;;;;;;;;;10489769;28;20230;-62
2022/12/26 14:09:51;;;;;;;1.60;1.50;;;;;;;;;;10489885;28;20194;-63
2022/12/26 14:14:52;;;;;;;4.93;1.40;;;;;;;;;;10488298;28;20720;-63
2022/12/26 14:20:11;;;;;;;2.20;1.20;;;;;;;;;;10488721;28;20278;-63
2022/12/26 14:25:17;;;;;;;1.10;1.00;;;;;;;;;;10487831;28;20211;-62
2022/12/26 14:30:27;;;;;;;1.60;1.30;;;;;;;;;;10488376;28;20192;-62
2022/12/26 14:35:57;;;;;;;3.27;1.30;;;;;;;;;;10488034;28;20265;-61
2022/12/26 14:41:03;;;;;;;1.67;1.00;;;;;;;;;;10398606;28;20211;-63
2022/12/26 14:46:08;;;;;;;1.17;1.10;;;;;;;;;;10488144;28;20199;-63
2022/12/26 14:51:17;;;;;;;4.00;1.20;;;;;;;;;;10487571;28;20216;-62
2022/12/26 14:56:17;;;;;;;2.13;1.20;;;;;;;;;;10495745;28;20344;-64
2022/12/26 15:01:38;;;;;;;1.33;1.23;;;;;;;;;;10496089;28;20768;-63
2022/12/26 15:07:02;;;;;;;2.13;2.00;;;;;;;;;;10477746;28;20240;-64
2022/12/26 15:12:08;;;;;;;1.57;1.47;;;;;;;;;;10494740;28;20203;-63
2022/12/26 15:17:15;;;;;;;18.13;16.33;;;;;;;;;;10495778;28;20223;-62
2022/12/26 15:22:24;;;;;;;2.57;1.83;;;;;;;;;;10494294;28;20215;-62
2022/12/26 15:27:33;;;;;;;1.60;1.50;;;;;;;;;;10494938;28;20198;-62
2022/12/26 15:32:33;;;;;;;2.77;1.87;;;;;;;;;;10494138;28;20666;-62
2022/12/26 15:37:37;;;;;;;1.60;1.50;;;;;;;;;;10494554;28;20223;-62
2022/12/26 15:42:41;;;;;;;4.90;4.00;;;;;;;;;;10493499;28;20250;-63
2022/12/26 15:47:41;;;;;;;2.43;2.00;;;;;;;;;;10479228;28;20556;-62
2022/12/26 15:52:47;;;;;;;4.37;3.57;;;;;;;;;;10452341;28;20260;-61
2022/12/26 15:57:53;;;;;;;6.97;4.77;;;;;;;;;;10452054;28;20692;-60
2022/12/26 16:03:05;;;;;;;6.90;4.43;;;;;;;;;;10451153;28;20852;-62
2022/12/26 16:08:38;;;;;;;3.37;1.93;;;;;;;;;;10450630;28;20840;-62
2022/12/26 16:13:47;;;;;;;1.93;1.50;;;;;;;;;;10428396;28;20315;-63
2022/12/26 16:18:47;;;;;;;2.57;1.90;;;;;;;;;;10464367;28;20219;-61
2022/12/26 16:23:49;;;;;;;4.53;3.57;;;;;;;;;;10464700;28;20682;-61
2022/12/26 16:28:49;;;;;;;4.77;3.63;;;;;;;;;;10471050;28;20191;-62
2022/12/26 16:33:50;;;;;;;3.10;1.70;;;;;;;;;;10462276;28;20203;-62
2022/12/26 16:38:51;;;;;;;3.50;1.93;;;;;;;;;;10493225;28;20292;-62
2022/12/26 16:43:53;;;;;;;1.97;1.30;;;;;;;;;;10492209;28;20276;-62
2022/12/26 16:48:55;;;;;;;2.43;1.93;;;;;;;;;;10493172;28;20221;-60
2022/12/26 16:54:12;;;;;;;2.40;1.20;;;;;;;;;;10491852;28;20618;-61
2022/12/26 16:59:15;;;;;;;2.00;1.50;;;;;;;;;;10492844;28;20271;-60
2022/12/26 17:04:19;;;;;;;3.50;1.63;;;;;;;;;;10491473;28;20212;-59
2022/12/26 17:09:21;;;;;;;3.23;2.83;;;;;;;;;;10492853;28;20191;-58
2022/12/26 17:14:25;;;;;;;5.93;1.93;;;;;;;;;;10490485;28;20199;-61
2022/12/26 17:19:30;;;;;;;5.60;3.67;;;;;;;;;;10484976;28;20700;-61
2022/12/26 17:24:30;;;;;;;5.07;1.70;;;;;;;;;;10490893;28;20352;-61
2022/12/26 17:29:35;;;;;;;4.93;1.60;;;;;;;;;;10491883;28;20274;-61
2022/12/26 17:34:36;;;;;;;30.07;17.33;;;;;;;;;;10476888;28;20241;-61
2022/12/26 17:39:36;;;;;;;2.47;2.27;;;;;;;;;;10449620;28;20212;-62
2022/12/26 17:44:41;;;;;;;2.67;1.70;;;;;;;;;;10467114;28;20224;-60
2022/12/26 17:49:41;;;;;;;3.37;1.77;;;;;;;;;;10467861;28;20210;-56
2022/12/26 17:54:41;;;;;;;3.10;2.10;;;;;;;;;;10456073;28;20207;-58
2022/12/26 17:59:41;;;;;;;3.57;1.60;;;;;;;;;;10465963;28;20506;-58
2022/12/26 18:04:41;;;;;;;1.70;1.50;;;;;;;;;;10464761;28;20461;-58
2022/12/26 18:09:42;;;;;;;8.97;4.77;;;;;;;;;;10464434;28;20210;-56
2022/12/26 18:14:42;;;;;;;4.80;2.83;;;;;;;;;;10467041;28;20696;-62
2022/12/26 18:19:43;;;;;;;0.90;0.90;;;;;;;;;;10450510;28;20208;-60
2022/12/26 18:24:44;;;;;;;2.27;0.90;;;;;;;;;;10448283;28;20700;-61
2022/12/26 18:29:44;;;;;;;2.40;1.50;;;;;;;;;;10447112;28;20196;-61
2022/12/26 18:34:44;;;;;;;1.30;0.87;;;;;;;;;;10450535;28;20210;-60
2022/12/26 18:39:44;;;;;;;2.77;1.37;;;;;;;;;;10465503;28;20482;-61
2022/12/26 18:44:45;;;;;;;1.90;0.90;;;;;;;;;;10465222;28;20238;-60
2022/12/26 18:49:45;;;;;;;3.67;2.50;;;;;;;;;;10464585;28;20219;-59
2022/12/26 18:54:45;;;;;;;1.03;0.90;;;;;;;;;;10463874;28;20211;-61
2022/12/26 18:59:46;;;;;;;1.50;1.40;;;;;;;;;;10464686;28;20211;-60
2022/12/26 19:04:47;;;;;;;1.50;1.07;;;;;;;;;;10463300;28;20566;-58
2022/12/26 19:09:49;;;;;;;1.20;1.10;;;;;;;;;;10489130;28;20194;-59
2022/12/26 19:14:49;;;;;;;3.17;1.43;;;;;;;;;;10486349;28;20204;-62
2022/12/26 19:19:50;;;;;;;1.37;0.93;;;;;;;;;;10487220;28;20219;-61
2022/12/26 19:24:50;;;;;;;1.27;1.17;;;;;;;;;;10488022;28;20214;-61
2022/12/26 19:29:50;;;;;;;1.13;0.90;;;;;;;;;;10486423;28;20191;-61
2022/12/26 19:34:52;;;;;;;1.00;0.90;;;;;;;;;;10487563;28;20703;-60
2022/12/26 19:39:52;;;;;;;1.00;0.90;;;;;;;;;;10490759;28;20280;-60
2022/12/26 19:44:52;;;;;;;1.30;0.90;;;;;;;;;;10493905;28;20227;-58
2022/12/26 19:49:53;;;;;;;0.80;0.80;;;;;;;;;;10494539;28;20187;-60
2022/12/26 19:54:53;;;;;;;0.70;0.70;;;;;;;;;;10493825;28;20206;-60
2022/12/26 19:59:53;;;;;;;2.77;0.80;;;;;;;;;;10493653;28;20222;-60
2022/12/26 20:04:53;;;;;;;0.80;0.80;;;;;;;;;;10493216;28;20211;-60
2022/12/26 20:09:53;;;;;;;1.50;0.80;;;;;;;;;;10494203;28;20199;-58
2022/12/26 20:14:54;;;;;;;4.00;1.53;;;;;;;;;;10492272;28;20199;-60
2022/12/26 20:19:54;;;;;;;2.23;2.03;;;;;;;;;;10493422;28;20214;-59
2022/12/26 20:24:54;;;;;;;1.13;0.93;;;;;;;;;;10492417;28;20934;-61
2022/12/26 20:29:54;;;;;;;1.40;1.30;;;;;;;;;;10492617;28;20285;-61
2022/12/26 20:34:54;;;;;;;1.70;1.40;;;;;;;;;;10492198;28;20214;-61
2022/12/26 20:39:57;;;;;;;1.17;1.10;;;;;;;;;;10493048;28;20605;-60
2022/12/26 20:44:58;;;;;;;8.57;3.97;;;;;;;;;;10490863;28;20381;-60
2022/12/26 20:49:58;;;;;;;3.70;1.30;;;;;;;;;;10491476;28;20315;-61
2022/12/26 20:54:58;;;;;;;2.47;1.63;;;;;;;;;;10491132;28;20215;-60
2022/12/26 20:59:58;;;;;;;3.27;1.40;;;;;;;;;;10491377;28;20218;-61
2022/12/26 21:04:59;;;;;;;101.03;33.97;;;;;;;;;;10484759;28;20745;-61
2022/12/26 21:09:59;;;;;;;71.40;28.07;;;;;;;;;;10468455;28;20191;-61
2022/12/26 21:14:59;;;;;;;7.90;5.73;;;;;;;;;;10467219;28;20947;-61
2022/12/26 21:19:59;;;;;;;3.13;1.50;;;;;;;;;;10469407;28;20208;-60
2022/12/26 21:25:00;;;;;;;2.80;1.20;;;;;;;;;;10485631;28;20295;-59
2022/12/26 21:30:00;;;;;;;1.27;1.10;;;;;;;;;;10490754;28;20191;-61
2022/12/26 21:35:00;;;;;;;1.53;1.30;;;;;;;;;;10462148;28;20212;-60
2022/12/26 21:40:01;;;;;;;4.00;2.20;;;;;;;;;;10450030;28;20707;-61
2022/12/26 21:45:01;;;;;;;3.00;1.47;;;;;;;;;;10448525;28;20725;-62
2022/12/26 21:50:01;;;;;;;10.20;3.17;;;;;;;;;;10449698;28;20191;-61
2022/12/26 22:00:20;;;;;;;2.13;1.70;;;;;;;;;;10490411;28;20238;-60
2022/12/26 22:05:22;;;;;;;1.23;1.07;;;;;;;;;;10488622;28;20241;-61
2022/12/26 22:16:03;;;;;;;7.00;2.03;;;;;;;;;;10490001;28;20215;-62
2022/12/26 22:21:03;;;;;;;7.77;1.97;;;;;;;;;;10490209;28;20279;-61
2022/12/26 22:26:04;;;;;;;5.73;2.40;;;;;;;;;;10489456;28;20298;-61
2022/12/26 22:31:05;;;;;;;7.13;2.20;;;;;;;;;;10489318;28;20545;-61
2022/12/26 22:36:06;;;;;;;8.87;2.60;;;;;;;;;;10489429;28;20221;-61
2022/12/26 22:41:06;;;;;;;14.70;2.47;;;;;;;;;;10488867;28;20201;-62
2022/12/26 22:46:06;;;;;;;5.60;2.37;;;;;;;;;;10489856;28;20191;-62
2022/12/26 22:51:07;;;;;;;7.13;2.47;;;;;;;;;;10489180;28;20252;-61
2022/12/26 22:56:08;;;;;;;9.17;2.70;;;;;;;;;;10489015;28;20281;-58
2022/12/26 23:01:12;;;;;;;10.60;2.33;;;;;;;;;;10488946;28;20195;-61
2022/12/26 23:06:25;;;;;;;10.67;2.93;;;;;;;;;;10488621;28;20180;-61
2022/12/26 23:11:27;;;;;;;6.30;2.83;;;;;;;;;;10488086;28;20570;-60
2022/12/26 23:16:32;;;;;;;3.30;2.43;;;;;;;;;;10495824;28;20749;-60
2022/12/26 23:21:42;;;;;;;6.40;3.00;;;;;;;;;;10496345;28;20227;-61
2022/12/26 23:26:50;;;;;;;11.93;3.37;;;;;;;;;;10496454;28;20198;-61
2022/12/26 23:31:50;;;;;;;6.67;3.40;;;;;;;;;;10495949;28;20232;-58
2022/12/26 23:36:51;;;;;;;4.50;3.60;;;;;;;;;;10495734;28;20217;-59
2022/12/26 23:41:51;;;;;;;6.97;3.20;;;;;;;;;;10495231;28;20600;-61
2022/12/26 23:46:51;;;;;;;5.50;4.07;;;;;;;;;;10495803;28;20230;-60
2022/12/26 23:51:51;;;;;;;10.47;3.90;;;;;;;;;;10495101;28;20302;-59
2022/12/26 23:56:51;;;;;;;13.20;4.43;;;;;;;;;;10495063;28;20211;-60
